createdAt,value
2019-02-08T00:00:15.147Z,19.12
2019-02-08T00:02:41.932Z,19.05
2019-02-08T00:05:08.576Z,18.05
2019-02-08T00:07:35.162Z,17.87
2019-02-08T00:10:01.846Z,17.15
2019-02-08T00:12:28.558Z,19.07
2019-02-08T00:14:55.225Z,18.73
2019-02-08T00:17:21.861Z,20.05
2019-02-08T00:19:48.832Z,17.98
2019-02-08T00:22:15.555Z,19.00
2019-02-08T00:24:42.150Z,18.25
2019-02-08T00:27:08.854Z,15.63
2019-02-08T00:29:35.500Z,19.42
2019-02-08T00:32:02.307Z,17.55
2019-02-08T00:34:28.896Z,14.53
2019-02-08T00:36:55.535Z,18.55
2019-02-08T00:39:22.181Z,17.30
2019-02-08T00:41:49.048Z,20.95
2019-02-08T00:44:15.689Z,21.45
2019-02-08T00:46:42.323Z,18.55
2019-02-08T00:49:08.911Z,16.57
2019-02-08T00:51:35.547Z,18.98
2019-02-08T00:54:02.185Z,17.02
2019-02-08T00:56:28.893Z,15.08
2019-02-08T00:58:55.483Z,16.10
2019-02-08T01:01:22.606Z,17.48
2019-02-08T01:03:49.195Z,16.85
2019-02-08T01:06:15.913Z,17.52
2019-02-08T01:08:42.591Z,17.32
2019-02-08T01:11:09.231Z,17.10
2019-02-08T01:13:35.823Z,17.17
2019-02-08T01:16:02.528Z,15.35
2019-02-08T01:18:29.176Z,19.00
2019-02-08T01:20:55.769Z,18.17
2019-02-08T01:23:22.732Z,16.95
2019-02-08T01:25:49.472Z,18.70
2019-02-08T01:28:16.142Z,15.83
2019-02-08T01:30:42.731Z,15.80
2019-02-08T01:33:09.317Z,16.30
2019-02-08T01:35:35.955Z,16.27
2019-02-08T01:38:02.591Z,14.85
2019-02-08T01:40:29.233Z,16.62
2019-02-08T01:42:55.841Z,16.85
2019-02-08T01:45:22.488Z,16.10
2019-02-08T01:47:49.068Z,14.87
2019-02-08T01:50:15.656Z,18.12
2019-02-08T01:52:42.294Z,17.70
2019-02-08T01:55:08.931Z,17.10
2019-02-08T01:57:35.520Z,17.77
2019-02-08T02:00:02.155Z,17.30
2019-02-08T02:02:28.743Z,16.15
2019-02-08T02:04:55.379Z,15.18
2019-02-08T02:07:22.015Z,17.48
2019-02-08T02:09:48.646Z,17.42
2019-02-08T02:12:15.391Z,15.90
2019-02-08T02:14:41.976Z,13.93
2019-02-08T02:17:08.565Z,17.57
2019-02-08T02:19:35.205Z,18.35
2019-02-08T02:22:01.858Z,16.77
2019-02-08T02:24:28.449Z,17.45
2019-02-08T02:26:55.034Z,15.13
2019-02-08T02:29:21.671Z,17.60
2019-02-08T02:31:48.259Z,17.52
2019-02-08T02:34:14.930Z,20.15
2019-02-08T02:36:41.523Z,14.80
2019-02-08T02:39:08.166Z,18.80
2019-02-08T02:41:34.756Z,18.02
2019-02-08T02:44:01.380Z,15.10
2019-02-08T02:46:28.018Z,15.15
2019-02-08T02:48:54.658Z,16.40
2019-02-08T02:51:21.395Z,16.80
2019-02-08T02:53:48.036Z,14.87
2019-02-08T02:56:14.630Z,17.42
2019-02-08T02:58:41.270Z,15.80
2019-02-08T03:01:07.910Z,15.38
2019-02-08T03:03:34.587Z,18.27
2019-02-08T03:06:01.435Z,15.70
2019-02-08T03:08:28.081Z,17.10
2019-02-08T03:10:54.717Z,16.07
2019-02-08T03:13:21.302Z,16.93
2019-02-08T03:15:47.951Z,15.05
2019-02-08T03:18:14.536Z,15.25
2019-02-08T03:20:41.118Z,15.63
2019-02-08T03:23:07.755Z,17.35
2019-02-08T03:25:34.435Z,16.90
2019-02-08T03:28:02.100Z,13.98
2019-02-08T03:30:28.737Z,15.15
2019-02-08T03:32:55.383Z,15.00
2019-02-08T03:35:22.114Z,14.33
2019-02-08T03:37:48.701Z,17.95
2019-02-08T03:40:15.331Z,13.15
2019-02-08T03:42:42.028Z,16.42
2019-02-08T03:45:08.667Z,13.38
2019-02-08T03:47:35.253Z,13.60
2019-02-08T03:50:02.043Z,14.85
2019-02-08T03:52:28.787Z,13.80
2019-02-08T03:54:55.379Z,13.55
2019-02-08T03:57:22.006Z,13.40
2019-02-08T03:59:48.702Z,14.55
2019-02-08T04:02:15.667Z,13.00
2019-02-08T04:04:42.447Z,13.60
2019-02-08T04:07:09.083Z,13.15
2019-02-08T04:09:35.765Z,15.90
2019-02-08T04:12:02.400Z,14.65
2019-02-08T04:14:29.038Z,14.47
2019-02-08T04:16:55.674Z,15.90
2019-02-08T04:19:22.257Z,14.80
2019-02-08T04:21:48.876Z,16.57
2019-02-08T04:24:15.507Z,12.58
2019-02-08T04:26:42.099Z,18.20
2019-02-08T04:29:08.738Z,13.93
2019-02-08T04:31:35.329Z,13.35
2019-02-08T04:34:01.967Z,14.55
2019-02-08T04:36:28.555Z,13.50
2019-02-08T04:38:55.186Z,13.45
2019-02-08T04:41:21.773Z,14.50
2019-02-08T04:43:48.412Z,16.27
2019-02-08T04:46:14.999Z,15.75
2019-02-08T04:48:41.638Z,15.38
2019-02-08T04:51:08.304Z,16.07
2019-02-08T04:53:34.943Z,13.78
2019-02-08T04:56:01.544Z,15.60
2019-02-08T04:58:35.425Z,15.78
2019-02-08T05:00:56.699Z,13.05
2019-02-08T05:03:23.287Z,17.02
2019-02-08T05:05:49.920Z,12.55
2019-02-08T05:08:16.558Z,14.35
2019-02-08T05:10:43.192Z,12.88
2019-02-08T05:13:09.791Z,15.35
2019-02-08T05:15:36.435Z,11.20
2019-02-08T05:18:03.175Z,14.13
2019-02-08T05:20:29.751Z,15.20
2019-02-08T05:22:56.379Z,11.28
2019-02-08T05:25:22.968Z,13.20
2019-02-08T05:27:49.721Z,12.82
2019-02-08T05:30:16.361Z,12.80
2019-02-08T05:32:42.947Z,14.15
2019-02-08T05:35:09.640Z,15.13
2019-02-08T05:37:36.227Z,14.40
2019-02-08T05:40:02.878Z,13.68
2019-02-08T05:42:29.461Z,12.37
2019-02-08T05:44:56.050Z,15.03
2019-02-08T05:47:22.723Z,11.88
2019-02-08T05:49:49.310Z,14.33
2019-02-08T05:52:15.961Z,13.48
2019-02-08T05:54:42.546Z,11.90
2019-02-08T05:57:09.136Z,15.05
2019-02-08T05:59:35.813Z,12.82
2019-02-08T06:02:02.503Z,12.78
2019-02-08T06:04:29.160Z,13.62
2019-02-08T06:06:55.827Z,13.85
2019-02-08T06:09:22.483Z,13.58
2019-02-08T06:11:49.179Z,12.05
2019-02-08T06:14:15.758Z,11.30
2019-02-08T06:16:42.395Z,14.73
2019-02-08T06:19:08.981Z,14.80
2019-02-08T06:21:35.573Z,12.55
2019-02-08T06:24:02.210Z,11.90
2019-02-08T06:26:28.852Z,12.07
2019-02-08T06:28:55.439Z,13.62
2019-02-08T06:31:22.031Z,14.58
2019-02-08T06:33:48.670Z,14.95
2019-02-08T06:36:15.382Z,13.30
2019-02-08T06:38:42.019Z,15.32
2019-02-08T06:41:08.663Z,14.07
2019-02-08T06:43:35.247Z,15.53
2019-02-08T06:46:02.143Z,12.45
2019-02-08T06:48:28.802Z,15.38
2019-02-08T06:50:55.389Z,12.58
2019-02-08T06:53:22.055Z,12.73
2019-02-08T06:55:53.682Z,12.40
2019-02-08T06:58:17.008Z,13.43
2019-02-08T07:00:43.651Z,11.90
2019-02-08T07:03:10.243Z,11.60
2019-02-08T07:05:36.834Z,13.98
2019-02-08T07:08:03.464Z,16.60
2019-02-08T07:10:30.093Z,16.75
2019-02-08T07:12:56.684Z,13.75
2019-02-08T07:15:23.316Z,12.60
2019-02-08T07:17:49.906Z,12.58
2019-02-08T07:20:16.542Z,12.47
2019-02-08T07:22:43.178Z,14.05
2019-02-08T07:25:09.886Z,13.65
2019-02-08T07:27:36.478Z,12.07
2019-02-08T07:30:03.110Z,15.15
2019-02-08T07:32:29.697Z,12.98
2019-02-08T07:34:56.420Z,14.53
2019-02-08T07:37:23.083Z,14.63
2019-02-08T07:39:49.665Z,13.90
2019-02-08T07:42:16.301Z,13.50
2019-02-08T07:44:42.989Z,11.93
2019-02-08T07:47:09.740Z,11.45
2019-02-08T07:49:36.330Z,13.03
2019-02-08T07:52:02.968Z,10.40
2019-02-08T07:54:29.562Z,10.80
2019-02-08T07:56:56.195Z,11.95
2019-02-08T07:59:22.841Z,11.75
2019-02-08T08:01:49.425Z,12.05
2019-02-08T08:04:16.016Z,13.08
2019-02-08T08:06:42.655Z,12.40
2019-02-08T08:09:09.241Z,9.95
2019-02-08T08:11:35.886Z,14.03
2019-02-08T08:14:02.475Z,13.10
2019-02-08T08:16:29.063Z,10.95
2019-02-08T08:18:55.701Z,11.05
2019-02-08T08:21:22.295Z,12.28
2019-02-08T08:23:49.010Z,12.45
2019-02-08T08:26:15.600Z,11.25
2019-02-08T08:28:42.190Z,10.08
2019-02-08T08:31:08.828Z,10.05
2019-02-08T08:33:35.416Z,9.50
2019-02-08T08:36:02.043Z,10.20
2019-02-08T08:38:28.633Z,9.55
2019-02-08T08:40:55.360Z,9.40
2019-02-08T08:43:21.945Z,9.68
2019-02-08T08:45:48.575Z,9.50
2019-02-08T08:48:15.160Z,8.63
2019-02-08T08:50:41.911Z,7.35
2019-02-08T08:53:08.549Z,6.78
2019-02-08T08:55:41.950Z,10.58
2019-02-08T08:58:03.601Z,9.30
2019-02-08T09:00:30.309Z,7.40
2019-02-08T09:02:56.892Z,11.15
2019-02-08T09:05:23.479Z,7.35
2019-02-08T09:07:50.111Z,8.70
2019-02-08T09:10:16.756Z,9.78
2019-02-08T09:12:43.396Z,7.55
2019-02-08T09:15:10.042Z,6.67
2019-02-08T09:17:36.672Z,7.08
2019-02-08T09:20:03.255Z,9.33
2019-02-08T09:22:29.893Z,8.38
2019-02-08T09:24:56.471Z,7.10
2019-02-08T09:27:23.110Z,6.15
2019-02-08T09:29:49.695Z,6.72
2019-02-08T09:32:16.334Z,7.15
2019-02-08T09:34:42.965Z,5.70
2019-02-08T09:37:09.573Z,5.12
2019-02-08T09:39:36.207Z,5.78
2019-02-08T09:42:02.792Z,8.25
2019-02-08T09:44:29.429Z,8.25
2019-02-08T09:46:56.010Z,7.80
2019-02-08T09:49:22.648Z,6.28
2019-02-08T09:51:49.240Z,6.62
2019-02-08T09:54:15.938Z,6.12
2019-02-08T09:56:42.521Z,7.42
2019-02-08T09:59:09.112Z,6.62
2019-02-08T10:01:35.748Z,5.72
2019-02-08T10:04:03.220Z,5.20
2019-02-08T10:06:29.931Z,5.40
2019-02-08T10:08:56.521Z,4.97
2019-02-08T10:11:23.225Z,5.70
2019-02-08T10:13:49.809Z,6.28
2019-02-08T10:16:16.499Z,4.78
2019-02-08T10:18:43.244Z,6.33
2019-02-08T10:21:09.877Z,5.78
2019-02-08T10:23:36.466Z,5.00
2019-02-08T10:26:05.525Z,5.83
2019-02-08T10:28:31.502Z,5.15
2019-02-08T10:30:58.091Z,4.17
2019-02-08T10:33:24.744Z,4.10
2019-02-08T10:35:51.345Z,6.40
2019-02-08T10:38:17.983Z,4.75
2019-02-08T10:40:44.700Z,5.17
2019-02-08T10:43:11.292Z,4.37
2019-02-08T10:45:37.926Z,5.47
2019-02-08T10:48:04.538Z,4.55
2019-02-08T10:50:31.279Z,3.17
2019-02-08T10:52:57.863Z,3.98
2019-02-08T10:55:24.558Z,4.15
2019-02-08T10:57:51.295Z,4.50
2019-02-08T11:00:17.935Z,3.45
2019-02-08T11:02:44.522Z,6.15
2019-02-08T11:05:11.162Z,5.85
2019-02-08T11:07:37.848Z,3.67
2019-02-08T11:10:04.480Z,3.47
2019-02-08T11:12:31.119Z,4.30
2019-02-08T11:14:57.711Z,6.78
2019-02-08T11:17:24.335Z,3.70
2019-02-08T11:19:50.919Z,4.53
2019-02-08T11:22:17.573Z,4.90
2019-02-08T11:24:44.210Z,5.90
2019-02-08T11:27:10.857Z,4.15
2019-02-08T11:29:37.487Z,4.60
2019-02-08T11:32:04.227Z,5.83
2019-02-08T11:34:30.825Z,4.40
2019-02-08T11:36:57.451Z,4.17
2019-02-08T11:39:24.037Z,5.05
2019-02-08T11:41:50.781Z,4.50
2019-02-08T11:44:17.368Z,4.50
2019-02-08T11:46:44.007Z,5.90
2019-02-08T11:49:10.590Z,3.90
2019-02-08T11:51:37.184Z,4.97
2019-02-08T11:54:03.818Z,5.40
2019-02-08T11:56:30.508Z,3.65
2019-02-08T11:58:57.163Z,3.62
2019-02-08T12:01:23.816Z,4.70
2019-02-08T12:03:50.462Z,3.87
2019-02-08T12:06:17.047Z,4.85
2019-02-08T12:08:43.696Z,5.03
2019-02-08T12:11:10.453Z,5.65
2019-02-08T12:13:37.091Z,3.75
2019-02-08T12:16:03.817Z,6.50
2019-02-08T12:18:30.457Z,4.87
2019-02-08T12:20:57.203Z,5.08
2019-02-08T12:23:23.938Z,5.37
2019-02-08T12:25:50.677Z,4.55
2019-02-08T12:28:17.266Z,5.53
2019-02-08T12:30:43.955Z,4.60
2019-02-08T12:33:10.595Z,4.67
2019-02-08T12:35:37.228Z,6.62
2019-02-08T12:38:03.972Z,5.50
2019-02-08T12:40:30.565Z,5.47
2019-02-08T12:42:57.201Z,6.10
2019-02-08T12:45:23.793Z,5.50
2019-02-08T12:47:50.431Z,4.03
2019-02-08T12:50:17.017Z,4.08
2019-02-08T12:52:43.660Z,5.20
2019-02-08T12:55:10.298Z,5.42
2019-02-08T12:57:36.940Z,5.70
2019-02-08T13:00:03.535Z,4.03
2019-02-08T13:02:30.174Z,6.95
2019-02-08T13:04:56.814Z,4.50
2019-02-08T13:07:23.454Z,4.62
2019-02-08T13:09:50.096Z,4.30
2019-02-08T13:12:16.688Z,4.45
2019-02-08T13:14:43.326Z,4.50
2019-02-08T13:17:09.922Z,4.37
2019-02-08T13:19:36.555Z,4.37
2019-02-08T13:22:03.144Z,4.20
2019-02-08T13:24:29.780Z,6.00
2019-02-08T13:26:56.373Z,4.35
2019-02-08T13:29:23.065Z,5.65
2019-02-08T13:31:49.701Z,4.72
2019-02-08T13:34:16.341Z,4.12
2019-02-08T13:36:42.929Z,3.15
2019-02-08T13:39:09.524Z,5.72
2019-02-08T13:41:36.170Z,4.62
2019-02-08T13:44:02.766Z,3.83
2019-02-08T13:46:30.312Z,5.75
2019-02-08T13:48:57.224Z,5.37
2019-02-08T13:51:23.879Z,7.03
2019-02-08T13:53:50.531Z,5.00
2019-02-08T13:56:17.831Z,6.67
2019-02-08T13:58:44.452Z,3.95
2019-02-08T14:01:11.207Z,4.20
2019-02-08T14:03:37.842Z,5.45
2019-02-08T14:06:04.482Z,3.85
2019-02-08T14:08:31.116Z,4.00
2019-02-08T14:10:57.766Z,4.30
2019-02-08T14:13:24.354Z,4.20
2019-02-08T14:15:50.994Z,4.37
2019-02-08T14:18:17.583Z,3.75
2019-02-08T14:20:44.310Z,6.55
2019-02-08T14:23:10.948Z,4.95
2019-02-08T14:25:37.591Z,4.58
2019-02-08T14:28:04.183Z,5.62
2019-02-08T14:30:30.822Z,5.72
2019-02-08T14:32:57.459Z,6.25
2019-02-08T14:35:24.088Z,4.92
2019-02-08T14:37:50.762Z,4.10
2019-02-08T14:40:17.355Z,5.10
2019-02-08T14:42:43.944Z,4.50
2019-02-08T14:45:10.583Z,5.12
2019-02-08T14:47:37.222Z,4.05
2019-02-08T14:50:03.862Z,5.78
2019-02-08T14:52:30.503Z,4.85
2019-02-08T14:54:57.240Z,5.58
2019-02-08T14:57:23.981Z,5.15
2019-02-08T14:59:50.571Z,5.87
2019-02-08T15:02:17.259Z,4.00
2019-02-08T15:04:43.850Z,4.90
2019-02-08T15:07:10.535Z,3.77
2019-02-08T15:09:37.174Z,6.08
2019-02-08T15:12:03.809Z,6.00
2019-02-08T15:14:30.422Z,6.85
2019-02-08T15:16:57.117Z,4.45
2019-02-08T15:19:23.707Z,4.83
2019-02-08T15:21:50.345Z,6.08
2019-02-08T15:24:16.991Z,8.03
2019-02-08T15:26:43.573Z,7.37
2019-02-08T15:29:10.380Z,10.70
2019-02-08T15:31:37.022Z,8.53
2019-02-08T15:34:03.661Z,6.80
2019-02-08T15:36:30.335Z,5.30
2019-02-08T15:38:57.815Z,5.87
2019-02-08T15:41:24.773Z,10.05
2019-02-08T15:43:51.582Z,5.37
2019-02-08T15:46:18.164Z,6.42
2019-02-08T15:48:44.876Z,8.18
2019-02-08T15:51:11.541Z,8.03
2019-02-08T15:53:38.194Z,8.95
2019-02-08T15:56:04.780Z,9.75
2019-02-08T15:58:31.428Z,6.95
2019-02-08T16:00:58.016Z,6.37
2019-02-08T16:03:24.649Z,5.65
2019-02-08T16:05:51.282Z,4.90
2019-02-08T16:08:17.883Z,6.08
2019-02-08T16:10:44.521Z,6.83
2019-02-08T16:13:11.120Z,5.45
2019-02-08T16:15:37.765Z,5.87
2019-02-08T16:18:04.474Z,5.78
2019-02-08T16:20:31.148Z,7.15
2019-02-08T16:22:57.792Z,5.28
2019-02-08T16:25:24.604Z,8.03
2019-02-08T16:27:51.195Z,6.35
2019-02-08T16:30:17.833Z,5.95
2019-02-08T16:32:44.413Z,5.58
2019-02-08T16:35:11.145Z,5.72
2019-02-08T16:37:37.732Z,4.10
2019-02-08T16:40:04.421Z,5.03
2019-02-08T16:42:31.011Z,5.33
2019-02-08T16:44:57.652Z,5.78
2019-02-08T16:47:24.236Z,6.28
2019-02-08T16:49:50.878Z,6.33
2019-02-08T16:52:17.519Z,5.10
2019-02-08T16:54:44.118Z,7.10
2019-02-08T16:57:10.783Z,4.47
2019-02-08T16:59:37.375Z,5.08
2019-02-08T17:02:04.017Z,7.80
2019-02-08T17:04:30.603Z,5.08
2019-02-08T17:06:57.241Z,4.40
2019-02-08T17:09:23.829Z,4.58
2019-02-08T17:11:51.143Z,5.03
2019-02-08T17:14:17.736Z,6.00
2019-02-08T17:16:44.376Z,5.28
2019-02-08T17:19:11.015Z,5.55
2019-02-08T17:21:37.616Z,4.53
2019-02-08T17:24:04.316Z,4.17
2019-02-08T17:26:30.908Z,4.03
2019-02-08T17:28:57.539Z,3.87
2019-02-08T17:31:24.129Z,3.30
2019-02-08T17:33:50.768Z,4.10
2019-02-08T17:36:17.360Z,4.53
2019-02-08T17:38:43.998Z,3.58
2019-02-08T17:41:10.584Z,4.72
2019-02-08T17:43:37.225Z,4.62
2019-02-08T17:46:03.884Z,5.42
2019-02-08T17:48:30.527Z,6.12
2019-02-08T17:50:57.133Z,4.95
2019-02-08T17:53:23.777Z,3.45
2019-02-08T17:55:50.369Z,5.22
2019-02-08T17:58:16.960Z,5.50
2019-02-08T18:00:43.690Z,7.67
2019-02-08T18:03:10.328Z,5.28
2019-02-08T18:05:36.919Z,4.50
2019-02-08T18:08:03.505Z,6.37
2019-02-08T18:10:30.143Z,4.83
2019-02-08T18:12:56.784Z,6.70
2019-02-08T18:15:23.454Z,3.83
2019-02-08T18:17:50.051Z,4.95
2019-02-08T18:20:16.681Z,13.50
2019-02-08T18:22:43.327Z,5.47
2019-02-08T18:25:09.958Z,5.12
2019-02-08T18:27:36.545Z,6.15
2019-02-08T18:30:04.150Z,5.12
2019-02-08T18:32:30.738Z,4.75
2019-02-08T18:34:57.335Z,5.05
2019-02-08T18:37:23.989Z,4.83
2019-02-08T18:39:50.581Z,4.83
2019-02-08T18:42:17.164Z,4.55
2019-02-08T18:44:43.799Z,4.97
2019-02-08T18:47:10.437Z,5.17
2019-02-08T18:49:37.162Z,4.47
2019-02-08T18:52:03.762Z,5.85
2019-02-08T18:54:30.441Z,3.90
2019-02-08T18:56:57.078Z,4.00
2019-02-08T18:59:23.717Z,5.75
2019-02-08T19:01:50.354Z,4.53
2019-02-08T19:04:16.988Z,3.47
2019-02-08T19:06:43.633Z,5.60
2019-02-08T19:09:10.266Z,4.30
2019-02-08T19:11:36.912Z,4.65
2019-02-08T19:14:03.546Z,4.70
2019-02-08T19:16:30.188Z,4.40
2019-02-08T19:18:56.928Z,5.30
2019-02-08T19:21:23.516Z,4.62
2019-02-08T19:23:50.150Z,4.55
2019-02-08T19:26:16.734Z,4.22
2019-02-08T19:28:43.375Z,4.42
2019-02-08T19:31:10.114Z,4.90
2019-02-08T19:33:36.752Z,4.12
2019-02-08T19:36:03.347Z,3.67
2019-02-08T19:38:30.029Z,3.00
2019-02-08T19:40:56.668Z,3.67
2019-02-08T19:43:23.466Z,4.65
2019-02-08T19:45:50.135Z,4.42
2019-02-08T19:48:16.727Z,3.83
2019-02-08T19:50:43.322Z,3.42
2019-02-08T19:53:09.939Z,5.42
2019-02-08T19:55:36.526Z,4.35
2019-02-08T19:58:03.111Z,3.70
2019-02-08T20:00:29.772Z,2.70
2019-02-08T20:02:56.410Z,3.62
2019-02-08T20:05:23.051Z,3.08
2019-02-08T20:07:49.688Z,4.75
2019-02-08T20:10:16.327Z,4.47
2019-02-08T20:12:42.965Z,5.15
2019-02-08T20:15:09.600Z,4.78
2019-02-08T20:17:36.343Z,3.90
2019-02-08T20:20:02.930Z,4.60
2019-02-08T20:22:29.566Z,5.83
2019-02-08T20:24:56.150Z,3.10
2019-02-08T20:27:22.785Z,4.70
2019-02-08T20:29:49.482Z,4.05
2019-02-08T20:32:16.082Z,3.60
2019-02-08T20:34:42.707Z,3.45
2019-02-08T20:37:09.341Z,5.53
2019-02-08T20:39:35.991Z,4.47
2019-02-08T20:42:02.581Z,4.90
2019-02-08T20:44:29.163Z,3.83
2019-02-08T20:46:55.809Z,5.35
2019-02-08T20:49:22.394Z,5.47
2019-02-08T20:51:48.984Z,4.47
2019-02-08T20:54:15.620Z,3.95
2019-02-08T20:56:42.211Z,4.90
2019-02-08T20:59:08.882Z,5.62
2019-02-08T21:01:35.470Z,4.40
2019-02-08T21:04:02.101Z,5.05
2019-02-08T21:06:28.797Z,5.05
2019-02-08T21:08:55.538Z,4.40
2019-02-08T21:11:22.127Z,4.37
2019-02-08T21:13:48.763Z,4.87
2019-02-08T21:16:15.397Z,4.50
2019-02-08T21:18:41.982Z,6.70
2019-02-08T21:21:08.617Z,4.47
2019-02-08T21:23:35.205Z,4.70
2019-02-08T21:26:02.009Z,5.97
2019-02-08T21:28:28.598Z,5.12
2019-02-08T21:30:55.232Z,4.47
2019-02-08T21:33:21.833Z,6.00
2019-02-08T21:35:49.621Z,6.08
2019-02-08T21:38:16.350Z,6.65
2019-02-08T21:40:42.944Z,6.92
2019-02-08T21:43:09.574Z,5.85
2019-02-08T21:45:36.238Z,5.90
2019-02-08T21:48:02.876Z,6.55
2019-02-08T21:50:29.464Z,8.23
2019-02-08T21:52:56.111Z,7.37
2019-02-08T21:55:22.699Z,7.10
2019-02-08T21:57:49.285Z,7.25
2019-02-08T22:00:15.922Z,7.70
2019-02-08T22:02:42.505Z,8.35
2019-02-08T22:05:09.238Z,8.25
2019-02-08T22:07:35.827Z,7.67
2019-02-08T22:10:02.515Z,7.70
2019-02-08T22:12:29.107Z,8.53
2019-02-08T22:14:55.794Z,9.15
2019-02-08T22:17:22.437Z,9.75
2019-02-08T22:19:49.072Z,9.40
2019-02-08T22:22:15.665Z,9.18
2019-02-08T22:24:42.298Z,9.83
2019-02-08T22:27:08.886Z,8.35
2019-02-08T22:29:35.599Z,7.72
2019-02-08T22:32:02.179Z,7.37
2019-02-08T22:34:28.818Z,7.80
2019-02-08T22:36:55.538Z,9.23
2019-02-08T22:39:22.123Z,6.85
2019-02-08T22:41:48.813Z,8.68
2019-02-08T22:44:15.402Z,7.67
2019-02-08T22:46:41.983Z,6.60
2019-02-08T22:49:08.627Z,7.42
2019-02-08T22:51:35.269Z,7.45
2019-02-08T22:54:02.004Z,7.70
2019-02-08T22:56:28.595Z,9.70
2019-02-08T22:58:55.233Z,7.75
2019-02-08T23:01:21.824Z,8.85
2019-02-08T23:03:48.410Z,10.85
2019-02-08T23:06:15.045Z,8.30
2019-02-08T23:08:41.629Z,7.90
2019-02-08T23:11:08.270Z,8.73
2019-02-08T23:13:34.870Z,9.28
2019-02-08T23:16:01.514Z,8.40
2019-02-08T23:18:28.095Z,8.08
2019-02-08T23:20:54.686Z,8.05
2019-02-08T23:23:21.324Z,8.63
2019-02-08T23:25:47.903Z,6.83
2019-02-08T23:28:14.546Z,10.82
2019-02-08T23:30:41.131Z,7.58
2019-02-08T23:33:07.770Z,7.45
2019-02-08T23:35:34.353Z,6.83
2019-02-08T23:38:01.700Z,7.75
2019-02-08T23:40:28.336Z,6.65
2019-02-08T23:42:54.969Z,8.03
2019-02-08T23:45:21.561Z,6.85
2019-02-08T23:47:48.200Z,6.85
2019-02-08T23:50:14.783Z,6.20
2019-02-08T23:52:41.365Z,7.80
2019-02-08T23:55:08.005Z,8.65
2019-02-08T23:57:34.588Z,6.45
